Time;durP1;ratioP1;P1;durP2;ratioP2;P2;SDS_P1;SDS_P2;PMS_P1;PMS_P2;Temp;Humidity;BMP_temperature;BMP_pressure;BME280_temperature;BME280_humidity;BME280_pressure;Samples;Min_cycle;Max_cycle;Signal;HPM_P1;HPM_P2
2021/08/08 00:02:13;;;;;;;5.65;2.90;;;;;;;16.99;74.58;99708.41;1858849;77;21460;-75
2021/08/08 00:04:39;;;;;;;9.35;3.47;;;;;;;16.98;74.69;99700.02;1863999;77;21001;-75
2021/08/08 00:07:05;;;;;;;7.78;4.53;;;;;;;16.98;74.82;99678.47;1825529;78;21013;-75
2021/08/08 00:09:31;;;;;;;11.18;5.60;;;;;;;16.95;74.93;99663.59;1826056;78;20926;-75
2021/08/08 00:11:57;;;;;;;15.40;7.42;;;;;;;16.93;75.02;99678.31;1797032;79;20986;-75
2021/08/08 00:14:23;;;;;;;26.02;14.07;;;;;;;16.93;75.11;99682.36;1825781;78;21486;-75
2021/08/08 00:16:49;;;;;;;9.55;5.15;;;;;;;16.88;75.18;99686.28;1826088;78;20990;-75
2021/08/08 00:19:15;;;;;;;8.25;3.72;;;;;;;16.83;75.29;99667.27;1791329;80;20975;-76
2021/08/08 00:21:42;;;;;;;7.83;3.62;;;;;;;16.77;75.38;99635.87;1826040;78;20972;-76
2021/08/08 00:24:08;;;;;;;7.37;3.30;;;;;;;16.76;75.48;99615.38;1791717;80;21041;-76
2021/08/08 00:26:34;;;;;;;7.20;2.60;;;;;;;16.76;75.58;99608.65;1826025;78;21061;-75
2021/08/08 00:29:00;;;;;;;5.75;3.90;;;;;;;16.79;75.67;99609.53;1791692;80;21030;-76
2021/08/08 00:31:26;;;;;;;5.83;2.33;;;;;;;16.77;75.72;99604.39;1825966;78;21488;-76
2021/08/08 00:33:52;;;;;;;6.95;2.20;;;;;;;16.72;75.79;99594.00;1791475;80;20959;-76
2021/08/08 00:36:18;;;;;;;6.22;2.90;;;;;;;16.66;75.86;99594.40;1825692;78;21005;-76
2021/08/08 00:38:44;;;;;;;5.97;2.90;;;;;;;16.61;75.97;99590.73;1791828;80;21054;-76
2021/08/08 00:41:11;;;;;;;7.15;2.72;;;;;;;16.61;76.06;99593.42;1825639;78;20971;-76
2021/08/08 00:43:38;;;;;;;5.87;3.10;;;;;;;16.61;76.13;99585.34;1793470;80;21088;-77
2021/08/08 00:46:04;;;;;;;5.67;3.08;;;;;;;16.58;76.23;99597.92;1826212;78;20955;-76
2021/08/08 00:48:30;;;;;;;5.12;2.52;;;;;;;16.54;76.30;99607.50;1791776;80;21022;-76
2021/08/08 00:50:56;;;;;;;3.22;2.10;;;;;;;16.54;76.39;99611.54;1825932;78;21460;-77
2021/08/08 00:53:22;;;;;;;4.17;2.42;;;;;;;16.54;76.48;99625.00;1762888;80;21507;-76
2021/08/08 00:55:48;;;;;;;3.02;2.60;;;;;;;16.56;76.55;99618.88;1825887;78;21444;-76
2021/08/08 00:58:14;;;;;;;4.67;2.90;;;;;;;16.57;76.60;99619.98;1791721;80;21431;-76
2021/08/08 01:00:40;;;;;;;8.05;3.20;;;;;;;16.57;76.64;99619.19;1825941;78;21148;-76
2021/08/08 01:03:08;;;;;;;5.80;2.42;;;;;;;16.55;76.72;99609.12;1791451;80;21112;-76
2021/08/08 01:05:38;;;;;;;4.37;2.42;;;;;;;16.50;76.83;99593.12;1825758;78;21038;-75
2021/08/08 01:08:04;;;;;;;4.35;2.30;;;;;;;16.47;76.93;99577.44;1791288;80;20978;-76
2021/08/08 01:10:32;;;;;;;3.67;2.42;;;;;;;16.43;77.02;99591.05;1825244;78;21101;-75
2021/08/08 01:12:58;;;;;;;6.12;3.15;;;;;;;16.46;77.13;99609.45;1792890;80;21053;-76
2021/08/08 01:15:25;;;;;;;3.33;2.47;;;;;;;16.48;77.20;99613.25;1825401;78;21792;-75
2021/08/08 01:17:51;;;;;;;6.17;3.27;;;;;;;16.48;77.27;99618.11;1791333;80;21002;-75
2021/08/08 01:20:17;;;;;;;5.00;2.80;;;;;;;16.49;77.33;99614.91;1825041;78;20982;-75
2021/08/08 01:22:54;;;;;;;4.90;2.87;;;;;;;16.49;77.40;99611.69;1791037;80;21498;-75
2021/08/08 01:25:22;;;;;;;5.65;4.03;;;;;;;16.49;77.49;99610.34;1825285;78;21479;-75
2021/08/08 01:27:51;;;;;;;4.83;3.85;;;;;;;16.49;77.58;99610.34;1762796;80;21082;-75
2021/08/08 01:30:17;;;;;;;6.25;3.37;;;;;;;16.51;77.66;99606.06;1825271;78;20967;-75
2021/08/08 01:32:43;;;;;;;4.78;2.95;;;;;;;16.53;77.72;99597.77;1790841;80;20974;-75
2021/08/08 01:35:09;;;;;;;4.12;2.85;;;;;;;16.53;77.79;99599.12;1825110;78;21578;-75
2021/08/08 01:37:35;;;;;;;4.42;3.08;;;;;;;16.53;77.87;99597.77;1790557;80;21436;-75
2021/08/08 01:40:12;;;;;;;6.45;3.15;;;;;;;16.56;77.95;99598.69;1825591;78;22097;-75
2021/08/08 01:42:39;;;;;;;6.53;4.42;;;;;;;16.60;78.00;99616.03;1814824;78;20978;-76
2021/08/08 01:45:06;;;;;;;5.50;3.33;;;;;;;16.61;78.06;99630.59;1764911;80;20991;-76
2021/08/08 01:47:36;;;;;;;3.58;3.10;;;;;;;16.62;78.10;99646.23;1792971;80;20978;-75
2021/08/08 01:50:02;;;;;;;4.47;3.05;;;;;;;16.61;78.14;99647.27;1761286;80;21486;-75
2021/08/08 01:52:28;;;;;;;5.75;3.42;;;;;;;16.57;78.22;99654.18;1764213;80;21101;-75
2021/08/08 01:54:55;;;;;;;5.25;2.90;;;;;;;16.54;78.29;99670.76;1761165;81;21057;-75
2021/08/08 01:57:21;;;;;;;5.03;2.40;;;;;;;16.48;78.36;99679.20;1794832;78;21029;-75
2021/08/08 01:59:47;;;;;;;2.87;1.90;;;;;;;16.45;78.54;99676.44;1764248;80;21073;-75
2021/08/08 02:02:16;;;;;;;5.78;3.15;;;;;;;16.38;78.69;99685.11;1795753;79;20997;-75
2021/08/08 02:04:43;;;;;;;5.62;3.25;;;;;;;16.34;78.93;99699.23;1764489;81;21063;-75
2021/08/08 02:07:10;;;;;;;5.45;3.22;;;;;;;16.32;79.07;99683.33;1795682;79;21044;-75
2021/08/08 02:09:37;;;;;;;4.83;3.62;;;;;;;16.31;79.17;99674.95;1764579;81;20962;-75
2021/08/08 02:12:03;;;;;;;4.20;3.75;;;;;;;16.31;79.27;99687.06;1795635;79;20966;-75
2021/08/08 02:14:29;;;;;;;4.90;3.87;;;;;;;16.31;79.34;99680.85;1764490;81;21060;-75
2021/08/08 02:16:55;;;;;;;5.00;4.42;;;;;;;16.33;79.41;99683.61;1795846;79;21155;-75
2021/08/08 02:22:07;;;;;;;6.75;5.60;;;;;;;16.42;79.56;99668.82;1820112;77;22742;-75
2021/08/08 02:24:33;;;;;;;5.83;5.28;;;;;;;16.38;79.64;99683.77;1790535;80;20978;-75
2021/08/08 02:26:59;;;;;;;7.15;5.00;;;;;;;16.38;79.73;99691.84;1790485;80;21014;-75
2021/08/08 02:29:25;;;;;;;6.17;4.67;;;;;;;16.38;79.81;99691.02;1790653;80;20949;-75
2021/08/08 02:31:51;;;;;;;8.00;5.03;;;;;;;16.37;79.86;99690.19;1790665;80;20981;-76
2021/08/08 02:34:17;;;;;;;6.10;4.78;;;;;;;16.36;79.92;99689.88;1759838;80;21227;-75
2021/08/08 02:36:43;;;;;;;7.95;5.03;;;;;;;16.37;79.99;99676.73;1790577;79;21034;-75
2021/08/08 02:39:10;;;;;;;7.42;4.85;;;;;;;16.38;80.04;99681.08;1790083;80;21065;-75
2021/08/08 02:41:36;;;;;;;4.97;4.47;;;;;;;16.38;80.11;99685.11;1790584;79;20994;-75
2021/08/08 02:44:03;;;;;;;6.20;5.35;;;;;;;16.39;80.13;99690.81;1790445;80;21183;-75
2021/08/08 02:46:29;;;;;;;8.33;6.33;;;;;;;16.38;80.15;99698.57;1790639;80;20966;-75
2021/08/08 02:48:55;;;;;;;10.03;5.25;;;;;;;16.39;80.19;99704.27;1790052;80;20970;-75
2021/08/08 02:51:21;;;;;;;11.80;6.35;;;;;;;16.39;80.22;99696.19;1790334;80;21072;-75
2021/08/08 02:53:47;;;;;;;12.78;6.67;;;;;;;16.40;80.27;99709.09;1790423;80;21006;-75
2021/08/08 02:56:13;;;;;;;11.60;6.50;;;;;;;16.37;80.27;99714.41;1790362;80;21017;-76
2021/08/08 02:58:40;;;;;;;9.13;5.97;;;;;;;16.34;80.30;99713.52;1790409;79;21021;-75
2021/08/08 03:01:07;;;;;;;9.48;5.17;;;;;;;16.33;80.36;99704.31;1789943;79;21006;-75
2021/08/08 03:03:34;;;;;;;7.75;4.70;;;;;;;16.31;80.39;99705.90;1788704;80;21055;-75
2021/08/08 03:06:01;;;;;;;9.40;5.42;;;;;;;16.33;80.42;99717.77;1788176;80;20979;-75
2021/08/08 03:08:27;;;;;;;7.08;4.28;;;;;;;16.33;80.45;99721.80;1733287;82;21063;-75
2021/08/08 03:10:53;;;;;;;6.80;5.00;;;;;;;16.32;80.44;99721.00;1733323;82;21039;-75
2021/08/08 03:13:19;;;;;;;6.37;4.67;;;;;;;16.33;80.47;99726.66;1733186;82;21094;-75
2021/08/08 03:15:45;;;;;;;6.15;4.28;;;;;;;16.34;80.49;99727.48;1733177;82;21487;-75
2021/08/08 03:18:12;;;;;;;6.30;4.28;;;;;;;16.36;80.52;99738.33;1733144;82;21082;-75
2021/08/08 03:20:38;;;;;;;6.00;3.85;;;;;;;16.37;80.56;99727.87;1731099;82;21004;-75
2021/08/08 03:23:04;;;;;;;4.25;3.42;;;;;;;16.37;80.56;99726.52;1725213;82;21059;-75
2021/08/08 03:25:30;;;;;;;4.22;3.33;;;;;;;16.38;80.57;99732.21;1780851;80;20990;-75
2021/08/08 03:27:56;;;;;;;4.42;3.27;;;;;;;16.38;80.57;99734.91;1780466;80;21178;-75
2021/08/08 03:30:22;;;;;;;4.30;3.17;;;;;;;16.37;80.59;99737.28;1780531;80;21315;-75
2021/08/08 03:32:48;;;;;;;7.47;3.17;;;;;;;16.36;80.61;99747.74;1779998;80;20995;-75
2021/08/08 03:35:14;;;;;;;6.35;3.15;;;;;;;16.38;80.61;99732.73;1779760;80;21065;-75
2021/08/08 03:37:40;;;;;;;4.55;3.00;;;;;;;16.36;80.62;99732.94;1780294;80;20995;-75
2021/08/08 03:40:07;;;;;;;9.03;3.77;;;;;;;16.37;80.65;99749.40;1779962;80;21110;-75
2021/08/08 03:42:34;;;;;;;5.08;3.70;;;;;;;16.37;80.65;99754.78;1772293;80;20948;-75
2021/08/08 03:45:00;;;;;;;5.08;3.42;;;;;;;16.37;80.63;99776.31;1749334;82;21848;-75
2021/08/08 03:47:26;;;;;;;4.83;2.72;;;;;;;16.38;80.65;99774.45;1749371;82;21482;-75
2021/08/08 03:49:52;;;;;;;4.12;3.20;;;;;;;16.36;80.64;99776.00;1749174;81;20987;-75
2021/08/08 03:52:19;;;;;;;3.87;3.17;;;;;;;16.37;80.65;99788.42;1749193;82;21091;-75
2021/08/08 03:54:45;;;;;;;8.60;3.35;;;;;;;16.38;80.63;99777.14;1749239;82;21035;-75
2021/08/08 03:57:11;;;;;;;5.28;3.37;;;;;;;16.38;80.64;99776.62;1749266;82;21057;-75
2021/08/08 03:59:38;;;;;;;8.50;4.05;;;;;;;16.39;80.64;99785.00;1749381;82;21090;-75
2021/08/08 04:02:04;;;;;;;5.67;3.58;;;;;;;16.40;80.65;99778.55;1749038;82;21551;-75
2021/08/08 04:04:30;;;;;;;4.78;3.83;;;;;;;16.40;80.67;99770.48;1749532;81;21031;-75
2021/08/08 04:06:56;;;;;;;7.62;3.05;;;;;;;16.41;80.64;99776.17;1749186;82;21522;-75
2021/08/08 04:09:22;;;;;;;4.72;3.20;;;;;;;16.42;80.64;99775.66;1749155;82;21479;-75
2021/08/08 04:11:48;;;;;;;5.03;3.27;;;;;;;16.43;80.64;99767.89;1749257;82;21034;-75
2021/08/08 04:14:14;;;;;;;4.50;3.75;;;;;;;16.42;80.67;99772.95;1749161;82;21022;-75
2021/08/08 04:16:41;;;;;;;5.53;3.55;;;;;;;16.41;80.67;99784.24;1749286;82;21132;-75
2021/08/08 04:19:07;;;;;;;5.47;3.50;;;;;;;16.40;80.66;99786.63;1748970;82;21030;-75
2021/08/08 04:21:33;;;;;;;6.05;3.55;;;;;;;16.41;80.67;99796.35;1749146;81;20998;-75
2021/08/08 04:23:59;;;;;;;3.70;3.30;;;;;;;16.41;80.67;99786.94;1749203;82;21030;-75
2021/08/08 04:26:25;;;;;;;6.47;3.98;;;;;;;16.40;80.67;99781.24;1749302;82;21014;-75
2021/08/08 04:28:51;;;;;;;5.53;3.30;;;;;;;16.39;80.68;99785.00;1749267;82;21248;-75
2021/08/08 04:31:18;;;;;;;5.15;3.42;;;;;;;16.39;80.69;99793.59;1749311;82;21479;-75
2021/08/08 04:33:44;;;;;;;7.85;3.17;;;;;;;16.39;80.69;99791.73;1749392;81;21578;-75
2021/08/08 04:36:10;;;;;;;5.17;3.52;;;;;;;16.39;80.72;99797.11;1749350;82;21503;-75
2021/08/08 04:38:36;;;;;;;7.42;3.20;;;;;;;16.39;80.71;99826.72;1749453;82;21589;-75
2021/08/08 04:41:02;;;;;;;5.83;3.05;;;;;;;16.39;80.71;99828.06;1749294;82;21569;-75
2021/08/08 04:43:28;;;;;;;5.12;3.65;;;;;;;16.38;80.73;99827.75;1749075;82;21034;-75
2021/08/08 04:45:54;;;;;;;6.83;3.52;;;;;;;16.39;80.76;99827.23;1749100;82;20976;-75
2021/08/08 04:48:20;;;;;;;5.97;3.52;;;;;;;16.41;80.78;99833.20;1749150;82;21602;-75
2021/08/08 04:50:46;;;;;;;5.30;3.17;;;;;;;16.43;80.77;99845.39;1751326;80;21058;-75
2021/08/08 04:53:16;;;;;;;5.30;3.25;;;;;;;16.44;80.76;99852.43;1766381;80;21793;-75
2021/08/08 04:55:43;;;;;;;;;;;;;;;16.43;80.78;99848.08;1751879;82;20975;-75
2021/08/08 04:58:09;;;;;;;10.15;3.62;;;;;;;16.42;80.79;99849.15;1750871;80;20163;-75
2021/08/08 05:00:36;;;;;;;7.00;5.12;;;;;;;16.42;80.79;99854.53;1749446;80;21060;-75
2021/08/08 05:03:02;;;;;;;7.67;3.85;;;;;;;16.40;80.82;99847.19;1755804;80;20987;-75
2021/08/08 05:05:28;;;;;;;5.58;3.27;;;;;;;16.46;80.85;99853.05;1740959;82;21148;-75
2021/08/08 05:07:55;;;;;;;5.53;3.15;;;;;;;16.61;80.86;99853.23;1753752;80;20965;-75
2021/08/08 05:10:24;;;;;;;5.65;3.30;;;;;;;16.84;80.84;99852.07;1779105;80;21030;-75
2021/08/08 05:12:49;;;;;;;3.75;3.20;;;;;;;16.96;80.82;99843.53;1780000;80;21460;-75
2021/08/08 05:15:15;;;;;;;7.17;3.15;;;;;;;17.06;80.82;99843.84;1780152;80;20978;-75
2021/08/08 05:17:41;;;;;;;5.83;3.12;;;;;;;17.10;80.80;99843.67;1780162;80;21785;-75
2021/08/08 05:20:08;;;;;;;5.37;3.22;;;;;;;17.09;80.81;99842.05;1779528;80;21538;-75
2021/08/08 05:22:34;;;;;;;6.33;3.75;;;;;;;17.05;80.77;99852.97;1779457;80;21428;-75
2021/08/08 05:25:01;;;;;;;7.85;3.47;;;;;;;17.08;80.79;99849.83;1780134;80;21488;-75
2021/08/08 05:27:27;;;;;;;5.28;3.08;;;;;;;17.14;80.75;99862.38;1779958;80;21050;-75
2021/08/08 05:29:53;;;;;;;7.58;3.20;;;;;;;17.13;80.71;99863.45;1780126;80;21143;-75
2021/08/08 05:32:19;;;;;;;4.47;3.00;;;;;;;17.13;80.73;99862.11;1779537;80;21053;-75
2021/08/08 05:34:46;;;;;;;4.37;3.58;;;;;;;17.14;80.68;99864.25;1780141;80;21014;-75
2021/08/08 05:37:13;;;;;;;5.72;3.40;;;;;;;17.12;80.64;99864.50;1779765;79;21051;-75
2021/08/08 05:39:39;;;;;;;6.85;3.22;;;;;;;17.15;80.65;99864.04;1779997;80;20982;-75
2021/08/08 05:42:05;;;;;;;5.55;3.20;;;;;;;17.23;80.61;99875.05;1778323;79;21147;-75
2021/08/08 05:44:37;;;;;;;6.50;3.52;;;;;;;17.28;80.57;99885.43;1749156;81;21055;-75
2021/08/08 05:46:59;;;;;;;4.37;2.70;;;;;;;17.43;80.53;99898.00;1748581;81;20983;-75
2021/08/08 05:49:25;;;;;;;5.97;2.85;;;;;;;17.79;80.43;99893.63;1749310;82;21074;-76
2021/08/08 05:51:51;;;;;;;3.87;2.75;;;;;;;18.08;80.40;99892.80;1749211;82;21606;-75
2021/08/08 05:54:17;;;;;;;7.83;3.33;;;;;;;18.34;80.29;99888.83;1748741;82;21784;-75
2021/08/08 05:56:43;;;;;;;3.42;2.83;;;;;;;18.53;80.18;99890.95;1749212;80;20924;-75
2021/08/08 05:59:11;;;;;;;6.42;3.12;;;;;;;18.77;80.08;99899.34;1749244;82;20988;-75
2021/08/08 06:01:37;;;;;;;10.88;3.55;;;;;;;18.75;79.91;99903.63;1749276;82;21058;-76
2021/08/08 06:04:03;;;;;;;6.60;2.77;;;;;;;18.69;79.78;99909.14;1749312;82;21035;-75
2021/08/08 06:06:32;;;;;;;4.83;2.90;;;;;;;18.71;79.65;99908.40;1749270;82;21154;-76
2021/08/08 06:08:58;;;;;;;3.92;2.62;;;;;;;18.74;79.45;99897.12;1728557;80;21020;-75
2021/08/08 06:11:24;;;;;;;4.55;2.50;;;;;;;18.88;79.34;99895.83;1748868;82;21011;-75
2021/08/08 06:13:50;;;;;;;2.87;2.42;;;;;;;18.96;79.11;99899.52;1748995;82;20988;-76
2021/08/08 06:16:16;;;;;;;5.17;2.40;;;;;;;19.03;78.93;99910.20;1749263;80;21047;-75
2021/08/08 06:18:42;;;;;;;4.62;2.50;;;;;;;18.99;78.80;99897.70;1749048;82;21803;-76
2021/08/08 06:21:08;;;;;;;7.45;2.95;;;;;;;18.90;78.66;99907.20;1749483;79;21085;-76
2021/08/08 06:23:34;;;;;;;4.85;2.47;;;;;;;18.68;78.58;99907.52;1762399;80;21042;-75
2021/08/08 06:26:00;;;;;;;3.72;2.15;;;;;;;18.53;78.53;99904.45;1762551;81;21124;-76
2021/08/08 06:28:26;;;;;;;3.40;2.35;;;;;;;18.52;78.48;99902.80;1762507;81;21022;-76
2021/08/08 06:30:52;;;;;;;4.83;2.17;;;;;;;18.55;78.41;99904.50;1762471;80;21320;-76
2021/08/08 06:33:19;;;;;;;4.60;2.52;;;;;;;18.52;78.31;99909.55;1762276;81;20991;-76
2021/08/08 06:35:46;;;;;;;5.15;2.42;;;;;;;18.50;78.27;99918.39;1762243;80;21052;-76
2021/08/08 06:38:12;;;;;;;5.85;2.70;;;;;;;18.42;78.19;99942.50;1796653;78;21484;-76
2021/08/08 06:40:39;;;;;;;3.72;2.45;;;;;;;18.34;78.13;99939.61;1821559;78;21046;-75
2021/08/08 06:43:05;;;;;;;4.55;2.37;;;;;;;18.31;78.13;99933.32;1821536;78;21472;-76
2021/08/08 06:45:34;;;;;;;5.50;2.85;;;;;;;18.29;78.10;99936.80;1821117;78;20967;-76
2021/08/08 06:48:00;;;;;;;6.92;2.70;;;;;;;18.32;78.08;99937.67;1752101;82;20983;-76
2021/08/08 06:50:28;;;;;;;3.77;2.37;;;;;;;18.40;78.03;99929.22;1763293;81;21487;-76
2021/08/08 06:52:55;;;;;;;9.03;2.65;;;;;;;18.42;77.99;99912.28;1763433;81;21027;-76
2021/08/08 06:55:21;;;;;;;3.12;2.55;;;;;;;18.44;77.95;99920.95;1763619;81;21133;-76
2021/08/08 06:57:47;;;;;;;7.28;2.77;;;;;;;18.43;77.86;99925.25;1763364;81;21010;-76
2021/08/08 07:00:13;;;;;;;3.92;2.95;;;;;;;18.39;77.83;99906.00;1763607;81;20995;-76
2021/08/08 07:02:39;;;;;;;8.20;4.10;;;;;;;18.42;77.82;99889.84;1763273;81;21046;-76
2021/08/08 07:05:06;;;;;;;4.67;3.00;;;;;;;18.42;77.80;99912.28;1763857;81;21464;-76
2021/08/08 07:07:32;;;;;;;9.23;3.37;;;;;;;18.48;77.79;99911.86;1763675;81;21763;-76
2021/08/08 07:09:58;;;;;;;4.78;2.60;;;;;;;18.61;77.74;99910.87;1763628;81;21077;-76
2021/08/08 07:12:25;;;;;;;2.98;2.02;;;;;;;18.71;77.66;99916.50;1763356;81;21066;-76
2021/08/08 07:14:51;;;;;;;6.25;2.42;;;;;;;18.87;77.58;99933.34;1763523;81;20995;-76
2021/08/08 07:17:17;;;;;;;3.87;2.17;;;;;;;18.95;77.51;99930.30;1763608;81;21019;-76
2021/08/08 07:19:43;;;;;;;4.87;1.95;;;;;;;18.92;77.46;99932.95;1763503;81;21063;-76
2021/08/08 07:22:10;;;;;;;5.75;1.95;;;;;;;19.34;77.47;99925.50;1761698;81;21047;-76
2021/08/08 07:24:36;;;;;;;7.10;2.55;;;;;;;19.89;77.29;99919.58;1757970;81;21090;-76
2021/08/08 07:27:02;;;;;;;6.00;2.50;;;;;;;20.27;77.00;99936.50;1757999;81;21003;-76
2021/08/08 07:29:28;;;;;;;3.52;2.22;;;;;;;20.66;76.70;99941.53;1757998;81;21010;-76
2021/08/08 07:31:54;;;;;;;3.75;1.80;;;;;;;20.77;76.22;99940.63;1743125;82;21929;-76
2021/08/08 07:34:21;;;;;;;5.17;2.35;;;;;;;20.83;75.82;99945.87;1812536;78;20956;-76
2021/08/08 07:36:47;;;;;;;3.08;2.05;;;;;;;20.97;75.42;99948.27;1812530;79;21035;-76
2021/08/08 07:39:13;;;;;;;6.42;2.12;;;;;;;21.14;75.17;99945.84;1812363;79;21039;-76
2021/08/08 07:41:39;;;;;;;5.15;2.12;;;;;;;21.39;74.78;99944.80;1812522;79;20991;-76
2021/08/08 07:44:05;;;;;;;4.37;1.82;;;;;;;21.54;74.25;99948.78;1783776;79;21722;-76
2021/08/08 07:46:31;;;;;;;4.40;1.80;;;;;;;21.50;73.77;99949.83;1779834;80;20975;-76
2021/08/08 07:48:57;;;;;;;1.75;1.60;;;;;;;21.65;73.30;99955.98;1779800;80;21076;-76
2021/08/08 07:51:23;;;;;;;5.55;1.55;;;;;;;21.62;72.88;99964.10;1779773;80;21400;-76
2021/08/08 07:53:49;;;;;;;4.22;1.50;;;;;;;21.82;72.61;99973.02;1779735;80;21603;-76
2021/08/08 07:56:15;;;;;;;3.33;1.87;;;;;;;21.90;72.00;99968.53;1779939;80;22543;-76
2021/08/08 07:58:41;;;;;;;3.52;2.10;;;;;;;21.97;71.56;99978.66;1779722;80;20958;-76
2021/08/08 08:01:07;;;;;;;5.80;1.87;;;;;;;22.26;71.29;99978.72;1779765;80;21038;-76
2021/08/08 08:03:33;;;;;;;2.08;1.40;;;;;;;22.48;70.87;99970.50;1779630;80;20998;-76
2021/08/08 08:05:59;;;;;;;2.77;1.60;;;;;;;22.42;69.97;99981.03;1779852;80;21061;-76
2021/08/08 08:08:25;;;;;;;3.58;1.50;;;;;;;22.21;69.08;99982.72;1779365;80;21471;-76
2021/08/08 08:10:51;;;;;;;6.33;2.10;;;;;;;22.08;68.58;99976.88;1756761;80;20906;-76
2021/08/08 08:13:17;;;;;;;4.50;1.57;;;;;;;22.28;68.49;99986.59;1777196;80;20987;-76
2021/08/08 08:15:43;;;;;;;3.20;1.47;;;;;;;22.38;68.15;99981.25;1748744;82;20994;-76
2021/08/08 08:18:09;;;;;;;3.60;1.62;;;;;;;22.60;68.01;99978.47;1754013;80;20996;-76
2021/08/08 08:20:37;;;;;;;6.10;1.90;;;;;;;22.72;67.62;99980.52;1749151;80;21806;-76
2021/08/08 08:23:05;;;;;;;3.58;1.50;;;;;;;22.81;67.27;99987.11;1748656;81;21431;-76
2021/08/08 08:25:31;;;;;;;2.17;1.50;;;;;;;22.97;67.01;99987.52;1778946;80;20972;-76
2021/08/08 08:27:57;;;;;;;1.32;1.20;;;;;;;23.06;66.69;99989.20;1776773;80;21099;-76
2021/08/08 08:30:23;;;;;;;1.42;1.32;;;;;;;23.02;66.35;99982.64;1804808;78;20999;-76
2021/08/08 08:32:49;;;;;;;4.25;1.60;;;;;;;23.17;66.13;99984.94;1784733;79;21778;-76
2021/08/08 08:35:15;;;;;;;2.77;1.90;;;;;;;23.14;65.63;99988.72;1754953;80;20991;-76
2021/08/08 08:37:41;;;;;;;5.10;1.60;;;;;;;23.24;65.36;99986.88;1750732;80;20998;-76
2021/08/08 08:40:08;;;;;;;3.90;1.70;;;;;;;23.43;65.13;99989.20;1779159;80;20971;-76
2021/08/08 08:42:37;;;;;;;3.77;1.47;;;;;;;23.51;64.76;99979.16;1776534;80;21033;-76
2021/08/08 08:45:04;;;;;;;5.53;1.57;;;;;;;23.50;64.32;99969.38;1778195;80;21858;-76
2021/08/08 08:47:31;;;;;;;3.47;1.77;;;;;;;23.40;63.95;99976.35;1777737;80;21458;-76
2021/08/08 08:50:00;;;;;;;2.55;1.50;;;;;;;23.43;63.65;99979.68;1774856;80;20990;-76
2021/08/08 08:52:27;;;;;;;2.42;1.22;;;;;;;23.43;63.13;99982.41;1749157;80;20982;-76
2021/08/08 08:54:54;;;;;;;2.60;1.25;;;;;;;23.24;62.75;99984.16;1752581;80;21021;-76
2021/08/08 08:57:21;;;;;;;1.45;1.35;;;;;;;23.05;62.75;99990.27;1778467;80;22452;-77
2021/08/08 08:59:47;;;;;;;2.72;1.57;;;;;;;22.84;62.19;99997.47;1778572;80;20915;-77
2021/08/08 09:02:16;;;;;;;2.92;1.75;;;;;;;23.00;62.26;100003.85;1778899;80;21042;-77
2021/08/08 09:04:42;;;;;;;1.92;1.50;;;;;;;23.32;61.99;100005.45;1769642;80;21004;-77
2021/08/08 09:07:08;;;;;;;1.98;1.37;;;;;;;23.55;61.73;100019.74;1747990;82;21029;-77
2021/08/08 09:09:35;;;;;;;1.75;1.20;;;;;;;23.80;61.66;100030.77;1748384;82;22017;-77
2021/08/08 09:12:02;;;;;;;3.47;1.35;;;;;;;24.02;61.55;100019.16;1718687;80;21394;-77
2021/08/08 09:14:28;;;;;;;4.50;1.27;;;;;;;23.86;60.77;100027.80;1779027;80;20990;-77
2021/08/08 09:16:55;;;;;;;2.42;1.22;;;;;;;23.59;60.66;100034.47;1777550;80;20982;-77
2021/08/08 09:19:27;;;;;;;3.08;1.15;;;;;;;23.10;59.98;100028.41;1767409;80;21028;-77
2021/08/08 09:21:53;;;;;;;5.62;1.22;;;;;;;22.62;59.92;100045.66;1763261;80;21799;-76
2021/08/08 09:24:29;;;;;;;3.95;1.47;;;;;;;22.23;59.70;100051.23;1775545;80;20938;-77
2021/08/08 09:27:10;;;;;;;5.45;1.07;;;;;;;22.07;59.88;100049.39;1765088;80;20998;-77
2021/08/08 09:29:40;;;;;;;1.62;1.12;;;;;;;22.01;59.98;100058.56;1766356;80;21025;-77
2021/08/08 09:32:07;;;;;;;2.60;1.57;;;;;;;21.89;60.15;100059.17;1783556;80;21006;-77
2021/08/08 09:34:36;;;;;;;2.67;1.75;;;;;;;21.82;60.36;100062.61;1772165;79;22434;-77
2021/08/08 09:37:19;;;;;;;2.45;1.27;;;;;;;22.11;60.62;100070.91;1769711;80;21547;-77
2021/08/08 09:39:50;;;;;;;3.22;1.20;;;;;;;22.67;60.57;100060.66;1769357;80;21065;-77
2021/08/08 09:42:22;;;;;;;2.05;1.02;;;;;;;22.71;60.11;100065.34;1765926;80;20990;-77
2021/08/08 09:44:56;;;;;;;4.00;1.70;;;;;;;22.55;59.87;100068.14;1757574;80;21014;-77
2021/08/08 09:47:24;;;;;;;2.50;1.10;;;;;;;22.77;59.93;100074.36;1754200;80;21700;-77
2021/08/08 09:50:00;;;;;;;2.75;1.20;;;;;;;23.03;59.67;100069.44;1758707;80;21432;-77
2021/08/08 09:52:26;;;;;;;3.95;1.70;;;;;;;23.29;59.55;100067.75;1787427;79;21001;-77
2021/08/08 09:54:52;;;;;;;4.85;2.85;;;;;;;23.52;59.27;100065.20;1787146;79;21115;-77
2021/08/08 09:57:18;;;;;;;7.58;3.33;;;;;;;23.92;59.16;100067.33;1786890;80;21002;-77
2021/08/08 09:59:48;;;;;;;5.45;3.30;;;;;;;24.11;58.62;100067.95;1776378;80;21921;-78
2021/08/08 10:02:20;;;;;;;3.08;1.10;;;;;;;24.19;58.21;100062.02;1756105;81;21101;-77
2021/08/08 10:04:49;;;;;;;3.52;1.80;;;;;;;24.26;57.68;100063.95;1756186;81;21017;-78
2021/08/08 10:07:16;;;;;;;4.12;2.55;;;;;;;24.43;57.52;100065.09;1743633;80;21049;-77
2021/08/08 10:09:47;;;;;;;5.10;1.00;;;;;;;24.54;57.12;100069.48;1768960;80;21506;-77
2021/08/08 10:12:31;;;;;;;1.30;1.00;;;;;;;24.48;56.70;100079.29;1767720;80;21819;-77
2021/08/08 10:14:57;;;;;;;2.75;1.52;;;;;;;24.40;56.49;100078.44;1758850;80;20965;-77
2021/08/08 10:17:26;;;;;;;1.52;1.17;;;;;;;24.52;56.25;100080.39;1764616;80;21041;-78
2021/08/08 10:19:55;;;;;;;4.12;1.40;;;;;;;24.72;55.85;100079.88;1778449;80;20989;-77
2021/08/08 10:22:23;;;;;;;2.02;1.82;;;;;;;24.92;55.54;100072.29;1764198;80;20957;-76
2021/08/08 10:24:55;;;;;;;1.95;1.05;;;;;;;25.19;55.19;100071.46;1771977;80;21842;-77
2021/08/08 10:27:23;;;;;;;1.55;0.82;;;;;;;25.51;55.04;100073.12;1768326;80;21459;-77
2021/08/08 10:29:49;;;;;;;0.70;0.65;;;;;;;25.44;54.34;100067.09;1770304;80;21032;-77
2021/08/08 10:32:15;;;;;;;3.37;1.07;;;;;;;25.02;54.03;100076.38;1772294;80;21076;-78
2021/08/08 10:34:42;;;;;;;1.47;1.00;;;;;;;24.97;54.02;100068.21;1768348;79;21089;-77
2021/08/08 10:37:13;;;;;;;3.00;1.00;;;;;;;24.93;53.93;100067.11;1771510;80;23056;-77
2021/08/08 10:39:45;;;;;;;2.05;1.02;;;;;;;24.82;53.90;100072.25;1765819;80;21021;-77
2021/08/08 10:42:12;;;;;;;3.75;1.30;;;;;;;24.45;53.66;100065.66;1770640;80;21077;-77
2021/08/08 10:44:52;;;;;;;3.72;0.85;;;;;;;23.91;53.69;100073.31;1773315;80;20910;-77
2021/08/08 10:47:32;;;;;;;1.75;0.85;;;;;;;23.61;53.92;100074.53;1778247;79;21029;-76
2021/08/08 10:50:16;;;;;;;2.35;1.10;;;;;;;23.44;54.06;100076.56;1765077;80;21862;-77
2021/08/08 10:52:44;;;;;;;3.85;1.20;;;;;;;23.21;54.33;100077.20;1764473;79;21487;-77
2021/08/08 10:55:26;;;;;;;4.55;0.82;;;;;;;23.29;54.72;100076.70;1787355;80;21363;-77
2021/08/08 10:57:53;;;;;;;3.55;1.22;;;;;;;23.58;54.80;100076.39;1774259;80;21474;-77
2021/08/08 11:00:19;;;;;;;2.35;0.93;;;;;;;23.79;54.80;100078.97;1786712;79;21541;-77
2021/08/08 11:02:46;;;;;;;2.05;0.90;;;;;;;23.98;54.57;100082.07;1787239;80;21798;-77
2021/08/08 11:05:14;;;;;;;1.32;1.00;;;;;;;23.87;54.40;100079.02;1777579;79;20942;-77
2021/08/08 11:07:41;;;;;;;2.40;1.20;;;;;;;23.56;54.40;100087.55;1770049;80;20986;-77
2021/08/08 11:10:09;;;;;;;2.62;1.40;;;;;;;23.48;54.67;100085.31;1768509;79;21049;-77
2021/08/08 11:12:37;;;;;;;4.28;1.37;;;;;;;23.80;54.83;100092.05;1771275;80;21068;-77
2021/08/08 11:15:05;;;;;;;1.47;0.93;;;;;;;24.03;54.70;100097.06;1770502;78;21901;-77
2021/08/08 11:17:31;;;;;;;2.05;1.00;;;;;;;24.04;54.66;100093.80;1771150;80;21013;-75
2021/08/08 11:20:03;;;;;;;2.02;0.80;;;;;;;23.99;54.11;100101.97;1770338;80;21006;-76
2021/08/08 11:22:29;;;;;;;1.67;1.20;;;;;;;24.08;53.89;100101.19;1772093;80;21513;-76
2021/08/08 11:25:03;;;;;;;5.30;0.90;;;;;;;24.30;53.51;100099.67;1760294;79;21877;-76
2021/08/08 11:27:33;;;;;;;2.65;1.00;;;;;;;24.40;52.84;100100.25;1763200;80;22530;-76
2021/08/08 11:30:07;;;;;;;1.62;1.07;;;;;;;24.51;52.54;100097.83;1761977;80;21025;-76
2021/08/08 11:32:33;;;;;;;1.52;1.02;;;;;;;24.70;52.34;100100.34;1762820;80;21021;-76
2021/08/08 12:06:35;;;;;;;2.65;1.25;;;;;;;25.39;49.64;100097.13;1884619;74;22246;-76